Time;durP1;ratioP1;P1;durP2;ratioP2;P2;SDS_P1;SDS_P2;PMS_P1;PMS_P2;Temp;Humidity;BMP_temperature;BMP_pressure;BME280_temperature;BME280_humidity;BME280_pressure;Samples;Min_cycle;Max_cycle;Signal;HPM_P1;HPM_P2
2023/10/27 00:01:23;;;;;;;0.28;0.28;;;;;;;14.32;100.00;93655.69;5051381;28;20533;-79
2023/10/27 00:03:50;;;;;;;0.20;0.20;;;;;;;14.39;100.00;93644.84;5051196;28;20607;-79
2023/10/27 00:06:17;;;;;;;0.20;0.20;;;;;;;14.55;100.00;93648.13;5051611;28;20231;-79
2023/10/27 00:08:45;;;;;;;0.10;0.10;;;;;;;14.53;100.00;93640.34;5051494;28;20235;-79
2023/10/27 00:11:12;;;;;;;0.10;0.10;;;;;;;14.55;100.00;93653.59;5050627;28;20617;-79
2023/10/27 00:13:39;;;;;;;0.50;0.50;;;;;;;14.55;100.00;93656.31;5051163;28;20218;-79
2023/10/27 00:16:10;;;;;;;0.10;0.10;;;;;;;14.39;100.00;93655.75;5051305;28;20610;-80
2023/10/27 00:18:37;;;;;;;0.35;0.35;;;;;;;14.38;100.00;93648.72;5051054;28;20203;-78
2023/10/27 00:21:04;;;;;;;0.20;0.20;;;;;;;14.36;100.00;93656.50;5051088;28;20299;-79
2023/10/27 00:23:32;;;;;;;0.20;0.20;;;;;;;14.42;100.00;93655.03;5050710;28;20204;-78
2023/10/27 00:26:00;;;;;;;0.10;0.10;;;;;;;14.46;100.00;93640.28;5050807;28;20246;-79
2023/10/27 00:28:27;;;;;;;20.08;1.88;;;;;;;14.52;100.00;93637.97;5051004;28;20282;-77
2023/10/27 00:30:54;;;;;;;0.30;0.30;;;;;;;14.46;100.00;93640.28;5044703;28;20222;-79
2023/10/27 00:33:21;;;;;;;0.10;0.10;;;;;;;14.41;100.00;93653.47;5033277;28;20589;-78
2023/10/27 00:35:51;;;;;;;0.20;0.20;;;;;;;14.36;100.00;93648.31;5030832;28;20215;-77
2023/10/27 00:38:17;;;;;;;0.40;0.40;;;;;;;14.39;100.00;93644.84;5031197;28;20561;-79
2023/10/27 00:40:44;;;;;;;0.40;0.38;;;;;;;14.45;100.00;93632.50;5030388;28;20208;-78
2023/10/27 00:43:18;;;;;;;0.20;0.20;;;;;;;14.51;100.00;93630.97;5044814;28;20559;-79
2023/10/27 00:45:47;;;;;;;0.20;0.20;;;;;;;14.39;100.00;93640.19;5051135;28;20572;-78
2023/10/27 00:48:15;;;;;;;0.50;0.50;;;;;;;14.40;100.00;93641.00;5050639;28;20211;-78
2023/10/27 00:50:42;;;;;;;0.20;0.20;;;;;;;14.38;100.00;93627.72;5050658;28;20218;-79
2023/10/27 00:53:10;;;;;;;0.30;0.30;;;;;;;14.41;100.00;93620.75;5050843;28;20292;-79
2023/10/27 00:55:38;;;;;;;0.30;0.30;;;;;;;14.33;100.00;93630.00;5041123;28;20200;-79
2023/10/27 00:58:05;;;;;;;0.60;0.60;;;;;;;14.42;100.00;93631.28;5031324;28;20576;-79
2023/10/27 01:00:33;;;;;;;3.72;0.60;;;;;;;14.44;100.00;93625.47;5040874;28;20211;-79
2023/10/27 01:03:00;;;;;;;0.47;0.43;;;;;;;14.50;100.00;93632.13;5050945;28;20273;-78
2023/10/27 01:05:27;;;;;;;0.30;0.30;;;;;;;14.42;100.00;93641.41;5050322;28;20262;-78
2023/10/27 01:07:55;;;;;;;1.00;0.60;;;;;;;14.33;100.00;93641.69;5050168;28;20211;-80
2023/10/27 01:10:22;;;;;;;0.30;0.30;;;;;;;14.34;100.00;93647.94;5039854;28;20568;-78
2023/10/27 01:12:50;;;;;;;14.88;0.65;;;;;;;14.23;100.00;93647.81;5030635;28;20219;-77
2023/10/27 01:15:17;;;;;;;0.85;0.65;;;;;;;14.28;100.00;93644.75;5030778;28;20262;-78
2023/10/27 01:17:45;;;;;;;0.57;0.45;;;;;;;14.23;100.00;93648.59;5035766;28;20294;-77
2023/10/27 01:20:12;;;;;;;0.57;0.57;;;;;;;14.22;100.00;93647.03;5050468;28;20215;-77
2023/10/27 01:22:43;;;;;;;0.20;0.20;;;;;;;14.07;100.00;93661.69;5050230;28;20231;-77
2023/10/27 01:25:12;;;;;;;0.10;0.10;;;;;;;14.00;100.00;93667.03;5050420;28;20242;-78
2023/10/27 01:27:39;;;;;;;0.35;0.35;;;;;;;13.95;100.00;93670.06;5049945;28;20223;-77
2023/10/27 01:30:07;;;;;;;0.55;0.55;;;;;;;14.03;100.00;93663.56;5050700;28;20291;-78
2023/10/27 01:32:35;;;;;;;0.30;0.30;;;;;;;14.06;100.00;93665.56;5039395;28;20208;-78
2023/10/27 01:35:02;;;;;;;0.32;0.32;;;;;;;14.12;100.00;93661.31;5050777;28;20212;-77
2023/10/27 01:37:29;;;;;;;0.73;0.73;;;;;;;14.06;100.00;93660.09;5050105;28;20575;-77
2023/10/27 01:39:57;;;;;;;0.32;0.32;;;;;;;13.98;100.00;93650.28;5050966;28;20567;-78
2023/10/27 01:42:24;;;;;;;0.20;0.20;;;;;;;14.00;100.00;93656.13;5050254;28;20572;-79
2023/10/27 01:44:51;;;;;;;0.40;0.40;;;;;;;13.96;100.00;93655.31;5049936;28;20895;-78
2023/10/27 01:47:18;;;;;;;0.40;0.40;;;;;;;13.91;100.00;93655.66;5050115;28;20224;-78
2023/10/27 01:49:46;;;;;;;0.20;0.20;;;;;;;13.91;100.00;93661.09;5049998;28;20211;-78
2023/10/27 01:52:12;;;;;;;1.13;0.95;;;;;;;13.99;100.00;93659.22;5049935;28;20211;-78
2023/10/27 01:54:39;;;;;;;0.30;0.30;;;;;;;13.93;100.00;93656.06;5054052;28;20599;-79
2023/10/27 01:57:08;;;;;;;0.40;0.40;;;;;;;13.91;100.00;93643.97;5053838;28;20269;-78
2023/10/27 01:59:34;;;;;;;0.20;0.20;;;;;;;13.83;100.00;93640.38;5053039;28;20211;-77
2023/10/27 02:02:01;;;;;;;0.20;0.20;;;;;;;13.83;100.00;93645.81;5053875;28;20650;-78
2023/10/27 02:04:28;;;;;;;0.30;0.30;;;;;;;13.79;100.00;93634.13;5053939;28;20550;-79
2023/10/27 02:06:56;;;;;;;0.47;0.47;;;;;;;13.80;100.00;93652.03;5053552;28;20239;-79
2023/10/27 02:09:23;;;;;;;0.32;0.30;;;;;;;13.74;100.00;93637.97;5052799;28;20247;-78
2023/10/27 02:11:50;;;;;;;0.22;0.22;;;;;;;13.93;100.00;93645.19;5053479;28;20207;-79
2023/10/27 02:14:18;;;;;;;0.38;0.38;;;;;;;14.01;100.00;93654.19;5053831;28;20535;-79
2023/10/27 02:16:45;;;;;;;0.35;0.35;;;;;;;13.99;100.00;93640.97;5053100;28;20203;-79
2023/10/27 02:19:13;;;;;;;0.40;0.40;;;;;;;13.93;100.00;93634.28;5053289;28;20211;-79
2023/10/27 02:21:39;;;;;;;0.28;0.28;;;;;;;13.96;100.00;93633.53;5053027;28;20645;-78
2023/10/27 02:24:08;;;;;;;0.38;0.38;;;;;;;13.95;100.00;93631.97;5053474;28;20211;-78
2023/10/27 02:26:36;;;;;;;0.20;0.20;;;;;;;13.78;100.00;93616.22;5052938;28;20607;-78
2023/10/27 02:29:03;;;;;;;0.10;0.10;;;;;;;13.77;100.00;93620.13;5053535;28;20609;-78
2023/10/27 02:31:32;;;;;;;0.35;0.22;;;;;;;13.83;100.00;93624.06;5052702;28;20219;-78
2023/10/27 02:33:58;;;;;;;0.45;0.45;;;;;;;13.79;100.00;93626.75;5047359;28;20215;-78
2023/10/27 02:36:25;;;;;;;0.30;0.30;;;;;;;13.75;100.00;93619.69;5044481;28;20571;-78
2023/10/27 02:38:52;;;;;;;0.30;0.30;;;;;;;13.68;100.00;93631.28;5043806;28;20295;-78
2023/10/27 02:41:19;;;;;;;0.30;0.30;;;;;;;13.59;100.00;93619.13;5039106;28;20794;-78
2023/10/27 02:43:46;;;;;;;0.40;0.40;;;;;;;13.57;100.00;93629.56;5043275;28;20665;-78
2023/10/27 02:46:13;;;;;;;0.20;0.20;;;;;;;13.62;100.00;93621.09;5045918;28;20209;-79
2023/10/27 02:48:42;;;;;;;0.20;0.20;;;;;;;13.58;100.00;93623.78;5040472;28;20230;-78
2023/10/27 02:51:09;;;;;;;0.20;0.20;;;;;;;13.66;100.00;93613.78;5043926;28;20258;-78
2023/10/27 02:53:36;;;;;;;0.68;0.68;;;;;;;13.73;100.00;93619.28;5041782;28;20203;-78
2023/10/27 02:56:06;;;;;;;0.20;0.20;;;;;;;13.91;100.00;93619.47;5041608;28;20287;-78
2023/10/27 02:58:34;;;;;;;0.30;0.30;;;;;;;13.94;100.00;93622.22;5046705;28;20221;-78
2023/10/27 03:01:01;;;;;;;0.20;0.20;;;;;;;13.96;100.00;93628.06;5043207;28;20208;-79
2023/10/27 03:03:27;;;;;;;0.30;0.30;;;;;;;13.93;100.00;93625.34;5044701;28;20208;-79
2023/10/27 03:05:56;;;;;;;0.30;0.30;;;;;;;13.88;100.00;93621.78;5041481;28;20216;-79
2023/10/27 03:08:23;;;;;;;0.40;0.40;;;;;;;14.00;100.00;93628.13;5043942;28;20606;-79
2023/10/27 03:10:49;;;;;;;0.20;0.20;;;;;;;13.95;100.00;93618.34;5045824;28;20555;-79
2023/10/27 03:13:16;;;;;;;0.20;0.20;;;;;;;14.01;100.00;93627.75;5044952;28;20204;-79
2023/10/27 03:15:43;;;;;;;0.28;0.28;;;;;;;13.97;100.00;93612.53;5050408;28;20211;-79
2023/10/27 03:18:11;;;;;;;0.17;0.17;;;;;;;14.06;100.00;93637.53;5052704;28;20307;-78
2023/10/27 03:20:38;;;;;;;1.25;1.00;;;;;;;14.02;100.00;93636.72;5039851;28;20210;-78
2023/10/27 03:23:06;;;;;;;0.20;0.20;;;;;;;14.00;100.00;93623.47;5039025;28;20278;-78
2023/10/27 03:25:33;;;;;;;0.73;0.73;;;;;;;13.94;100.00;93619.50;5035047;28;20236;-77
2023/10/27 03:28:00;;;;;;;0.35;0.35;;;;;;;13.90;100.00;93618.69;5039877;28;20292;-77
2023/10/27 03:30:27;;;;;;;0.45;0.45;;;;;;;13.83;100.00;93624.06;5050090;28;20615;-77
2023/10/27 03:32:57;;;;;;;0.43;0.43;;;;;;;13.92;100.00;93613.66;5044502;28;20525;-77
2023/10/27 03:35:24;;;;;;;0.80;0.65;;;;;;;13.91;100.00;93620.25;5050802;28;20215;-77
2023/10/27 03:37:50;;;;;;;0.20;0.20;;;;;;;13.81;100.00;93610.81;5051044;28;20215;-77
2023/10/27 03:40:19;;;;;;;0.20;0.20;;;;;;;13.80;100.00;93609.25;5051365;28;20207;-77
2023/10/27 03:42:46;;;;;;;0.30;0.30;;;;;;;13.74;100.00;93616.19;5051816;28;20220;-77
2023/10/27 03:45:13;;;;;;;0.20;0.20;;;;;;;13.75;100.00;93606.09;5038362;28;20204;-77
2023/10/27 03:47:39;;;;;;;0.20;0.20;;;;;;;13.71;100.00;93599.81;5051493;28;20570;-77
2023/10/27 03:50:07;;;;;;;0.20;0.20;;;;;;;13.80;100.00;93600.31;5051756;28;20208;-77
2023/10/27 03:52:34;;;;;;;0.95;0.95;;;;;;;13.84;100.00;93603.84;5051291;28;20203;-76
2023/10/27 03:55:02;;;;;;;0.38;0.38;;;;;;;13.78;100.00;93606.13;5051487;28;20242;-79
2023/10/27 03:57:34;;;;;;;1.00;0.95;;;;;;;13.72;100.00;93595.94;5051447;28;20215;-76
2023/10/27 04:00:01;;;;;;;0.35;0.35;;;;;;;13.69;100.00;93596.69;5031474;28;20215;-76
2023/10/27 04:02:27;;;;;;;0.10;0.10;;;;;;;13.73;100.00;93605.66;5031294;28;20204;-76
2023/10/27 04:04:54;;;;;;;0.55;0.55;;;;;;;13.96;100.00;93595.41;5031642;28;20580;-77
2023/10/27 04:07:21;;;;;;;0.28;0.28;;;;;;;13.94;100.00;93586.06;5031188;28;20228;-78
2023/10/27 04:09:48;;;;;;;0.30;0.30;;;;;;;13.94;100.00;93581.38;5037057;28;20212;-77
2023/10/27 04:12:15;;;;;;;7.57;0.85;;;;;;;13.88;100.00;93583.69;5050969;28;20245;-77
2023/10/27 04:14:43;;;;;;;0.20;0.20;;;;;;;13.93;100.00;93590.72;5050805;28;20199;-77
2023/10/27 04:17:10;;;;;;;0.50;0.50;;;;;;;13.78;100.00;93573.47;5050502;28;20199;-77
2023/10/27 04:19:37;;;;;;;0.20;0.20;;;;;;;13.82;100.00;93565.31;5049450;28;20211;-77
2023/10/27 04:22:05;;;;;;;0.20;0.20;;;;;;;13.92;100.00;93563.88;5050921;28;20215;-76
2023/10/27 04:24:32;;;;;;;0.20;0.20;;;;;;;14.01;100.00;93554.25;5051063;28;20632;-77
2023/10/27 04:26:57;;;;;;;0.30;0.30;;;;;;;14.05;100.00;93543.38;5050796;28;20606;-76
2023/10/27 04:29:24;;;;;;;0.20;0.20;;;;;;;14.08;100.00;93539.88;5051536;28;20212;-77
2023/10/27 04:31:52;;;;;;;0.20;0.20;;;;;;;14.08;100.00;93537.94;5051215;28;20207;-76
2023/10/27 04:34:20;;;;;;;0.30;0.30;;;;;;;13.94;100.00;93554.16;5051077;28;20207;-76
2023/10/27 04:36:48;;;;;;;0.28;0.28;;;;;;;13.93;100.00;93551.84;5050918;28;20211;-76
2023/10/27 04:39:15;;;;;;;0.40;0.40;;;;;;;13.79;100.00;93547.81;5050768;28;20218;-77
2023/10/27 04:41:42;;;;;;;0.55;0.55;;;;;;;13.79;100.00;93549.75;5050746;28;20207;-76
2023/10/27 04:44:09;;;;;;;0.70;0.65;;;;;;;13.84;100.00;93555.63;5050851;28;20222;-76
2023/10/27 04:46:36;;;;;;;0.32;0.32;;;;;;;13.88;100.00;93566.56;5050833;28;20203;-76
2023/10/27 04:49:04;;;;;;;0.25;0.25;;;;;;;13.87;100.00;93565.78;5041673;28;20212;-76
2023/10/27 04:51:31;;;;;;;0.35;0.35;;;;;;;13.84;100.00;93561.06;5030534;28;20208;-76
2023/10/27 04:53:58;;;;;;;0.10;0.10;;;;;;;13.87;100.00;93554.09;5031074;28;20219;-77
2023/10/27 04:56:26;;;;;;;0.20;0.20;;;;;;;13.91;100.00;93554.94;5030445;28;20282;-77
2023/10/27 04:58:52;;;;;;;3.60;1.13;;;;;;;13.90;100.00;93564.25;5030688;28;20229;-76
2023/10/27 05:01:24;;;;;;;0.40;0.40;;;;;;;13.92;100.00;93561.16;5030999;28;20212;-76
2023/10/27 05:03:51;;;;;;;0.40;0.40;;;;;;;13.89;100.00;93562.69;5030610;28;20569;-76
2023/10/27 05:06:19;;;;;;;0.38;0.38;;;;;;;13.82;100.00;93562.59;5030510;28;20248;-77
2023/10/27 05:08:46;;;;;;;0.30;0.30;;;;;;;13.77;100.00;93554.78;5030475;28;20235;-76
2023/10/27 05:11:13;;;;;;;0.38;0.38;;;;;;;13.94;100.00;93564.28;5048295;28;20294;-76
2023/10/27 05:13:40;;;;;;;0.32;0.32;;;;;;;13.97;100.00;93558.84;5050241;28;20204;-76
2023/10/27 05:16:07;;;;;;;0.10;0.10;;;;;;;14.14;100.00;93563.69;5050938;28;20208;-77
2023/10/27 05:18:34;;;;;;;1.85;0.40;;;;;;;14.17;100.00;93562.16;5050203;28;20204;-77
2023/10/27 05:21:01;;;;;;;2.55;1.00;;;;;;;14.33;100.00;93542.84;5050709;28;20211;-78
2023/10/27 05:23:29;;;;;;;0.20;0.20;;;;;;;14.43;100.00;93547.59;5050116;28;20266;-75
2023/10/27 05:25:56;;;;;;;0.20;0.20;;;;;;;14.53;100.00;93539.50;5049998;28;20239;-77
2023/10/27 05:28:23;;;;;;;0.63;0.63;;;;;;;14.55;100.00;93530.97;5054332;28;20591;-76
2023/10/27 05:30:51;;;;;;;0.40;0.40;;;;;;;14.57;100.00;93539.53;5054406;28;20215;-77
2023/10/27 05:33:18;;;;;;;0.20;0.20;;;;;;;14.68;100.00;93548.56;5054111;28;20303;-77
2023/10/27 05:35:45;;;;;;;0.60;0.60;;;;;;;14.69;100.00;93533.78;5053825;28;20226;-77
2023/10/27 05:38:12;;;;;;;0.40;0.40;;;;;;;14.85;100.00;93547.91;5054377;28;20203;-77
2023/10/27 05:40:40;;;;;;;0.30;0.30;;;;;;;15.02;100.00;93540.19;5053856;28;20214;-79
2023/10/27 05:43:07;;;;;;;0.22;0.22;;;;;;;15.17;100.00;93530.94;5053255;28;20204;-75
2023/10/27 05:45:34;;;;;;;0.40;0.28;;;;;;;15.33;100.00;93531.34;5034184;28;20209;-78
2023/10/27 05:48:01;;;;;;;1.00;0.45;;;;;;;15.47;100.00;93547.00;5034048;28;20239;-79
2023/10/27 05:50:28;;;;;;;0.30;0.30;;;;;;;15.52;100.00;93533.00;5039987;28;20638;-80
2023/10/27 05:52:55;;;;;;;0.52;0.50;;;;;;;15.75;100.00;93538.16;5036554;28;20212;-78
2023/10/27 05:55:22;;;;;;;1.75;0.65;;;;;;;15.87;100.00;93540.50;5033985;28;20215;-79
2023/10/27 05:57:50;;;;;;;0.50;0.50;;;;;;;15.93;100.00;93555.34;5039849;28;20197;-78
2023/10/27 06:00:17;;;;;;;14.10;1.30;;;;;;;16.04;100.00;93561.63;5053883;28;20234;-80
2023/10/27 06:02:44;;;;;;;0.38;0.38;;;;;;;15.91;100.00;93563.16;5053400;28;20211;-79
2023/10/27 06:05:11;;;;;;;2.75;0.98;;;;;;;16.02;100.00;93580.34;5044664;28;20596;-78
2023/10/27 06:07:40;;;;;;;1.15;0.65;;;;;;;16.11;100.00;93578.03;5049594;28;20267;-79
2023/10/27 06:10:08;;;;;;;0.40;0.40;;;;;;;15.97;100.00;93584.25;5053311;28;20208;-78
2023/10/27 06:12:35;;;;;;;0.30;0.30;;;;;;;15.81;100.00;93580.31;5053456;28;20208;-78
2023/10/27 06:15:04;;;;;;;0.10;0.10;;;;;;;15.78;100.00;93583.81;5053741;28;20702;-79
2023/10/27 06:17:32;;;;;;;0.55;0.55;;;;;;;15.90;100.00;93572.50;5053326;28;20219;-79
2023/10/27 06:20:01;;;;;;;0.63;0.47;;;;;;;16.14;100.00;93582.69;5053799;28;20216;-79
2023/10/27 06:22:28;;;;;;;0.25;0.25;;;;;;;16.28;100.00;93593.66;5053531;28;20656;-79
2023/10/27 06:24:55;;;;;;;1.65;0.98;;;;;;;16.59;100.00;93585.88;5053567;28;20216;-80
2023/10/27 06:27:22;;;;;;;0.60;0.60;;;;;;;16.94;100.00;93558.53;5053390;28;20243;-81
2023/10/27 06:29:48;;;;;;;0.30;0.30;;;;;;;17.21;99.23;93566.28;5053630;28;20548;-81
2023/10/27 06:32:17;;;;;;;0.30;0.30;;;;;;;17.60;97.05;93586.09;5053506;28;20257;-79
2023/10/27 06:34:44;;;;;;;0.20;0.20;;;;;;;17.86;95.45;93586.78;5052817;28;20294;-77
2023/10/27 06:37:11;;;;;;;0.65;0.65;;;;;;;17.45;96.80;93573.63;5048075;28;20208;-79
2023/10/27 06:39:38;;;;;;;0.17;0.17;;;;;;;17.11;98.31;93588.97;5032517;28;20209;-80
2023/10/27 06:42:06;;;;;;;2.13;0.90;;;;;;;16.88;100.00;93559.31;5033137;28;20219;-78
2023/10/27 06:44:33;;;;;;;1.58;1.05;;;;;;;16.89;99.70;93555.41;5045262;28;20211;-78
2023/10/27 06:46:59;;;;;;;0.82;0.70;;;;;;;17.14;90.46;93527.97;5040148;28;20215;-80
2023/10/27 06:49:28;;;;;;;0.32;0.32;;;;;;;17.07;97.58;93541.69;5053370;28;20589;-78
2023/10/27 06:51:54;;;;;;;0.20;0.20;;;;;;;16.80;98.91;93542.16;5053131;28;20207;-79
2023/10/27 06:54:21;;;;;;;0.47;0.47;;;;;;;16.83;99.40;93557.75;5053244;28;20204;-79
2023/10/27 06:56:50;;;;;;;0.73;0.73;;;;;;;17.01;98.06;93574.91;5053448;28;20235;-79
2023/10/27 06:59:17;;;;;;;0.38;0.38;;;;;;;17.12;98.19;93596.78;5053159;28;20254;-76
2023/10/27 07:01:44;;;;;;;0.20;0.20;;;;;;;17.16;96.54;93574.88;5045427;28;20580;-77
2023/10/27 07:04:11;;;;;;;0.43;0.40;;;;;;;17.10;94.73;93570.97;5034512;28;20200;-78
2023/10/27 07:06:39;;;;;;;0.73;0.73;;;;;;;17.02;95.21;93560.06;5053187;28;20226;-78
2023/10/27 07:09:06;;;;;;;0.77;0.60;;;;;;;17.09;95.36;93563.94;5052803;28;20615;-79
2023/10/27 07:11:34;;;;;;;0.38;0.38;;;;;;;17.40;94.69;93568.56;5052760;28;20216;-79
2023/10/27 07:14:01;;;;;;;0.22;0.22;;;;;;;17.73;94.38;93570.81;5052430;28;20646;-79
2023/10/27 07:16:28;;;;;;;2.50;1.23;;;;;;;17.94;92.81;93574.59;5051719;28;20214;-77
2023/10/27 07:18:56;;;;;;;1.50;1.00;;;;;;;17.76;93.41;93574.72;5051225;28;20200;-74
2023/10/27 07:21:22;;;;;;;1.55;1.10;;;;;;;17.50;95.33;93561.47;5051127;28;20226;-74
2023/10/27 07:23:51;;;;;;;0.68;0.25;;;;;;;17.52;95.49;93564.59;5036889;28;20212;-74
2023/10/27 07:26:18;;;;;;;0.75;0.75;;;;;;;17.46;95.61;93558.78;5032159;28;20332;-75
2023/10/27 07:28:45;;;;;;;0.43;0.43;;;;;;;17.65;96.17;93547.34;5031997;28;20228;-74
2023/10/27 07:31:12;;;;;;;0.35;0.35;;;;;;;17.97;94.85;93546.41;5032193;28;20212;-74
2023/10/27 07:33:39;;;;;;;0.20;0.20;;;;;;;18.11;93.25;93557.28;5033972;28;20235;-73
2023/10/27 07:36:06;;;;;;;0.38;0.38;;;;;;;17.92;94.00;93555.81;5032587;28;20291;-74
2023/10/27 07:38:34;;;;;;;1.33;1.00;;;;;;;18.24;93.11;93577.56;5048266;28;20579;-74
2023/10/27 07:41:04;;;;;;;0.13;0.13;;;;;;;18.49;92.92;93577.38;5052012;28;20211;-74
2023/10/27 07:43:33;;;;;;;0.20;0.20;;;;;;;18.52;91.86;93564.84;5047295;28;20262;-74
2023/10/27 07:46:00;;;;;;;1.10;0.85;;;;;;;18.37;91.53;93567.69;5031871;28;20208;-74
2023/10/27 07:48:27;;;;;;;0.77;0.63;;;;;;;18.63;91.24;93565.56;5031832;28;20236;-73
2023/10/27 07:50:57;;;;;;;7.00;1.25;;;;;;;18.55;90.31;93569.53;5030604;28;20223;-74
2023/10/27 07:53:24;;;;;;;0.55;0.50;;;;;;;18.66;90.10;93564.75;5031512;28;20204;-74
2023/10/27 07:55:51;;;;;;;0.20;0.20;;;;;;;18.59;90.23;93567.53;5030474;28;20216;-73
2023/10/27 07:58:22;;;;;;;1.90;0.60;;;;;;;19.07;89.19;93581.25;5050836;28;20208;-74
2023/10/27 08:00:51;;;;;;;0.30;0.30;;;;;;;19.04;87.21;93582.84;5051256;28;20207;-73
2023/10/27 08:03:18;;;;;;;3.10;1.10;;;;;;;18.82;87.96;93562.25;5051203;28;20204;-74
2023/10/27 08:05:45;;;;;;;1.02;0.85;;;;;;;18.47;89.39;93553.09;5051590;28;20206;-74
2023/10/27 08:08:11;;;;;;;0.50;0.50;;;;;;;18.45;90.13;93544.50;5051223;28;20634;-73
2023/10/27 08:10:39;;;;;;;3.95;1.25;;;;;;;18.66;90.05;93549.06;5051432;28;20261;-73
2023/10/27 08:13:06;;;;;;;2.20;1.63;;;;;;;18.84;88.52;93526.97;5051505;28;20591;-75
2023/10/27 08:15:34;;;;;;;0.38;0.38;;;;;;;18.89;88.33;93528.47;5050725;28;20242;-75
2023/10/27 08:18:01;;;;;;;0.88;0.50;;;;;;;19.02;87.65;93527.56;5051450;28;20618;-74
2023/10/27 08:20:30;;;;;;;0.60;0.47;;;;;;;19.12;86.76;93543.16;5051547;28;20212;-74
2023/10/27 08:22:57;;;;;;;1.33;1.05;;;;;;;19.38;86.06;93538.16;5051314;28;20218;-74
2023/10/27 08:25:25;;;;;;;0.30;0.30;;;;;;;19.19;85.35;93525.81;5050820;28;20235;-75
2023/10/27 08:27:52;;;;;;;1.75;0.93;;;;;;;18.94;86.43;93525.31;5051240;28;20619;-75
2023/10/27 08:30:19;;;;;;;1.52;0.98;;;;;;;18.68;87.69;93515.75;5050848;28;20208;-75
2023/10/27 08:32:47;;;;;;;0.30;0.30;;;;;;;18.63;88.80;93516.19;5041920;28;20303;-75
2023/10/27 08:35:14;;;;;;;1.77;1.65;;;;;;;18.76;87.64;93525.47;5033761;28;20212;-73
2023/10/27 08:37:41;;;;;;;1.25;1.00;;;;;;;18.95;86.89;93527.63;5050699;28;20644;-73
2023/10/27 08:40:12;;;;;;;0.45;0.45;;;;;;;19.06;86.17;93528.31;5050803;28;20618;-74
2023/10/27 08:42:39;;;;;;;0.28;0.28;;;;;;;19.39;85.49;93517.75;5050870;28;20385;-73
2023/10/27 08:45:08;;;;;;;1.30;0.93;;;;;;;19.50;84.25;93529.41;5050733;28;20203;-74
2023/10/27 08:47:36;;;;;;;1.02;0.70;;;;;;;19.43;84.07;93521.22;5050656;28;20629;-77
2023/10/27 08:50:05;;;;;;;1.60;1.50;;;;;;;19.54;83.81;93530.16;5050556;28;20700;-78
2023/10/27 08:52:33;;;;;;;1.23;1.10;;;;;;;19.62;82.75;93528.88;5051129;28;20615;-76
2023/10/27 08:55:02;;;;;;;1.30;0.70;;;;;;;19.38;81.35;93516.19;5045882;28;20216;-76
2023/10/27 08:57:29;;;;;;;0.52;0.52;;;;;;;19.26;82.12;93514.00;5042266;28;20208;-76
2023/10/27 08:59:56;;;;;;;0.38;0.35;;;;;;;19.21;81.26;93522.66;5045761;28;20212;-76
2023/10/27 09:02:30;;;;;;;0.40;0.40;;;;;;;19.24;82.43;93524.59;5032785;28;20258;-76
2023/10/27 09:05:07;;;;;;;0.77;0.63;;;;;;;19.39;81.04;93495.78;5055659;28;20622;-76
2023/10/27 09:07:34;;;;;;;0.88;0.40;;;;;;;19.92;71.75;93489.63;5054778;28;20206;-76
2023/10/27 09:10:02;;;;;;;0.20;0.20;;;;;;;20.22;67.59;93489.56;5054201;28;20289;-77
2023/10/27 09:12:30;;;;;;;0.40;0.40;;;;;;;20.40;65.92;93503.03;5055020;28;20203;-77
2023/10/27 09:15:04;;;;;;;0.20;0.20;;;;;;;20.67;64.27;93507.72;5054849;28;20203;-77
2023/10/27 09:17:31;;;;;;;0.30;0.30;;;;;;;21.04;63.86;93496.47;5055489;28;20203;-78
2023/10/27 09:20:08;;;;;;;1.02;0.70;;;;;;;21.22;62.24;93480.38;5054784;28;20595;-78
2023/10/27 09:22:36;;;;;;;1.17;0.52;;;;;;;21.29;61.18;93476.72;5050093;28;20644;-74
2023/10/27 09:25:18;;;;;;;0.60;0.60;;;;;;;21.25;61.77;93468.53;5034903;28;20611;-77
2023/10/27 09:27:45;;;;;;;0.20;0.20;;;;;;;21.06;63.20;93466.50;5032966;28;20250;-77
2023/10/27 09:30:26;;;;;;;0.20;0.20;;;;;;;20.75;62.41;93452.16;5034213;28;20243;-76
2023/10/27 09:32:53;;;;;;;1.00;0.65;;;;;;;20.89;63.35;93456.63;5036329;28;20273;-73
2023/10/27 09:35:22;;;;;;;0.17;0.17;;;;;;;20.99;61.90;93472.16;5034670;28;20215;-74
2023/10/27 09:37:50;;;;;;;0.80;0.75;;;;;;;20.81;62.87;93444.16;5034359;28;20244;-73
2023/10/27 09:40:17;;;;;;;0.75;0.73;;;;;;;21.03;63.20;93437.06;5033806;28;20270;-74
2023/10/27 09:42:44;;;;;;;0.73;0.70;;;;;;;21.42;62.27;93428.03;5034008;28;20211;-73
2023/10/27 09:45:13;;;;;;;0.45;0.35;;;;;;;21.72;61.81;93435.28;5051656;28;20265;-74
2023/10/27 09:47:47;;;;;;;0.47;0.47;;;;;;;21.54;61.20;93429.38;5053974;28;20215;-74
2023/10/27 09:50:15;;;;;;;0.35;0.35;;;;;;;21.28;61.91;93433.84;5054135;28;20223;-78
2023/10/27 09:52:47;;;;;;;0.85;0.45;;;;;;;21.23;60.69;93437.88;5054004;28;20215;-78
2023/10/27 09:55:16;;;;;;;0.20;0.20;;;;;;;21.09;61.18;93438.13;5053903;28;20298;-79
2023/10/27 09:57:45;;;;;;;0.20;0.20;;;;;;;21.27;60.77;93441.34;5041031;28;20204;-79
2023/10/27 10:00:14;;;;;;;0.60;0.60;;;;;;;21.53;60.65;93433.31;5053921;28;20203;-79
2023/10/27 10:02:45;;;;;;;2.15;0.60;;;;;;;21.66;59.91;93425.16;5053626;28;20542;-79
2023/10/27 10:05:12;;;;;;;0.50;0.50;;;;;;;21.55;59.80;93437.22;5054121;28;20648;-77
2023/10/27 10:07:41;;;;;;;3.13;0.75;;;;;;;21.42;58.08;93394.19;5053586;28;20247;-78
2023/10/27 10:10:29;;;;;;;0.50;0.50;;;;;;;21.54;58.52;93412.84;5053301;28;20227;-78
2023/10/27 10:13:03;;;;;;;1.10;0.85;;;;;;;21.58;58.73;93424.56;5053033;28;20203;-77
2023/10/27 10:15:32;;;;;;;0.73;0.73;;;;;;;21.55;58.87;93417.13;5053571;28;20206;-78
2023/10/27 10:17:59;;;;;;;0.43;0.40;;;;;;;21.72;58.41;93415.97;5033907;28;20632;-79
2023/10/27 10:24:17;;;;;;;0.45;0.45;;;;;;;22.71;56.26;93437.66;5033616;28;20219;-78
2023/10/27 10:27:14;;;;;;;0.30;0.30;;;;;;;22.89;54.70;93426.16;5045337;28;20239;-77
2023/10/27 10:29:43;;;;;;;0.70;0.70;;;;;;;22.64;53.38;93437.84;5043099;28;20638;-74
2023/10/27 10:32:31;;;;;;;0.57;0.57;;;;;;;22.33;53.78;93446.47;5052561;28;20213;-76
2023/10/27 10:35:24;;;;;;;0.95;0.57;;;;;;;22.34;52.81;93427.94;5053499;28;20575;-76
2023/10/27 10:37:52;;;;;;;0.60;0.50;;;;;;;22.57;52.39;93426.97;5053041;28;20199;-78
2023/10/27 10:40:31;;;;;;;0.82;0.50;;;;;;;22.88;51.94;93413.56;5035464;28;20262;-75
2023/10/27 10:43:23;;;;;;;0.47;0.40;;;;;;;23.15;52.42;93411.22;5046015;28;20200;-75
2023/10/27 10:45:54;;;;;;;0.65;0.60;;;;;;;23.28;52.39;93403.75;5053502;28;20680;-73
2023/10/27 10:48:22;;;;;;;0.77;0.55;;;;;;;23.29;51.84;93399.00;5052966;28;20208;-74
2023/10/27 10:50:52;;;;;;;0.50;0.50;;;;;;;23.74;50.68;93418.25;5053066;28;20596;-78
2023/10/27 10:53:21;;;;;;;1.13;0.60;;;;;;;23.84;51.11;93422.69;5053488;28;20211;-78
2023/10/27 10:55:50;;;;;;;3.38;0.50;;;;;;;23.34;50.74;93407.53;5052633;28;20353;-78
2023/10/27 10:58:26;;;;;;;0.40;0.40;;;;;;;22.53;51.87;93393.19;5052571;28;20251;-78
2023/10/27 11:00:55;;;;;;;0.47;0.43;;;;;;;22.59;52.40;93414.28;5052318;28;20203;-79
2023/10/27 11:03:23;;;;;;;2.13;0.50;;;;;;;22.56;51.43;93408.84;5052919;28;20599;-78
2023/10/27 11:05:54;;;;;;;0.40;0.40;;;;;;;22.87;52.55;93406.50;5052426;28;20208;-79
2023/10/27 11:08:25;;;;;;;0.68;0.68;;;;;;;23.20;51.13;93404.41;5043813;28;20215;-78
2023/10/27 11:11:04;;;;;;;0.60;0.60;;;;;;;23.51;49.34;93383.38;5047138;28;20577;-79
2023/10/27 11:13:33;;;;;;;1.25;0.60;;;;;;;23.67;48.73;93390.78;5052157;28;20219;-78
2023/10/27 11:16:01;;;;;;;1.52;0.50;;;;;;;23.15;49.76;93371.78;5052627;28;20208;-79
2023/10/27 11:18:29;;;;;;;0.50;0.50;;;;;;;22.76;50.37;93368.13;5052667;28;20637;-79
2023/10/27 11:20:56;;;;;;;0.40;0.40;;;;;;;22.84;50.71;93375.00;5047585;28;20255;-79
2023/10/27 11:23:27;;;;;;;0.60;0.60;;;;;;;23.03;51.27;93378.81;5044008;28;20607;-78
2023/10/27 11:26:03;;;;;;;2.28;0.90;;;;;;;23.59;49.97;93386.72;5051788;28;20255;-78
2023/10/27 11:28:30;;;;;;;0.68;0.50;;;;;;;23.74;49.21;93390.59;5037485;28;20243;-79
2023/10/27 11:31:05;;;;;;;0.73;0.60;;;;;;;23.78;49.86;93382.19;5030790;28;20227;-79
2023/10/27 11:33:31;;;;;;;0.47;0.47;;;;;;;23.87;48.54;93382.31;5033163;28;20200;-78
2023/10/27 11:36:02;;;;;;;0.82;0.50;;;;;;;23.49;48.29;93368.44;5050051;28;20212;-79
2023/10/27 11:38:33;;;;;;;0.30;0.30;;;;;;;23.18;48.46;93349.59;5050826;28;20650;-79